createdAt,value
2023-03-06T00:00:24.144Z,11.5
2023-03-06T00:02:27.140Z,6.4
2023-03-06T00:04:30.144Z,5.6
2023-03-06T00:06:36.355Z,15.8
2023-03-06T00:08:39.408Z,19.8
2023-03-06T00:10:42.375Z,9.4
2023-03-06T00:16:51.385Z,19.2
2023-03-06T00:18:54.422Z,4.8
2023-03-06T00:21:00.620Z,5.8
2023-03-06T00:23:03.624Z,12.2
2023-03-06T00:27:09.627Z,15.5
2023-03-06T00:29:12.621Z,8.6
2023-03-06T00:33:18.655Z,4.5
2023-03-06T00:35:24.868Z,7.8
2023-03-06T00:37:27.840Z,19.1
2023-03-06T00:39:30.844Z,7.3
2023-03-06T00:41:33.834Z,5.1
2023-03-06T00:45:39.869Z,8.7
2023-03-06T00:49:49.014Z,7.1
2023-03-06T00:56:20.034Z,9.8
2023-03-06T00:58:22.140Z,8.4
2023-03-06T01:00:25.162Z,9.5
2023-03-06T01:02:31.508Z,7.5
2023-03-06T01:04:34.365Z,5
2023-03-06T01:06:37.338Z,8.1
2023-03-06T01:08:40.338Z,13
2023-03-06T01:14:49.277Z,9
2023-03-06T01:16:55.523Z,14.9
2023-03-06T01:18:58.512Z,14.5
2023-03-06T01:21:01.523Z,15.3
2023-03-06T01:23:04.488Z,23.2
2023-03-06T01:25:07.468Z,12.7
2023-03-06T01:27:10.466Z,10.5
2023-03-06T01:29:13.437Z,8.1
2023-03-06T01:31:21.251Z,17.9
2023-03-06T01:33:24.216Z,18.5
2023-03-06T01:35:27.259Z,6.3
2023-03-06T01:37:30.181Z,8.8
2023-03-06T01:39:33.149Z,14.7
2023-03-06T01:41:36.157Z,16.6
2023-03-06T01:43:39.186Z,11.5
2023-03-06T01:45:45.423Z,15.4
2023-03-06T01:47:48.345Z,10.3
2023-03-06T01:49:51.355Z,13.6
2023-03-06T01:59:09.605Z,10.3
2023-03-06T02:05:18.583Z,8.6
2023-03-06T02:07:21.536Z,19.9
2023-03-06T02:09:24.567Z,11.3
2023-03-06T02:11:27.678Z,19.6
2023-03-06T02:13:33.724Z,9.8
2023-03-06T02:15:36.716Z,15
2023-03-06T02:17:39.707Z,7.6
2023-03-06T02:19:42.696Z,6
2023-03-06T02:21:45.677Z,9.1
2023-03-06T02:23:48.658Z,10.6
2023-03-06T02:25:51.643Z,12.3
2023-03-06T02:27:57.839Z,19.3
2023-03-06T02:30:00.818Z,9.4
2023-03-06T02:32:03.828Z,10.7
2023-03-06T02:34:06.793Z,11.5
2023-03-06T02:36:09.784Z,12.2
2023-03-06T02:38:12.741Z,25.7
2023-03-06T02:40:15.726Z,16.9
2023-03-06T02:42:21.903Z,12.5
2023-03-06T02:44:24.882Z,11.4
2023-03-06T02:46:27.923Z,14.8
2023-03-06T02:49:33.918Z,20.6
2023-03-06T02:51:36.894Z,15.7
2023-03-06T02:53:39.868Z,17.9
2023-03-06T02:55:46.063Z,17.2
2023-03-06T02:57:49.033Z,16.1
2023-03-06T02:59:52.055Z,16.9
2023-03-06T03:01:55.024Z,23.9
2023-03-06T03:06:01.006Z,14
2023-03-06T03:10:10.173Z,16
2023-03-06T03:12:13.144Z,21.7
2023-03-06T03:14:16.152Z,18.1
2023-03-06T03:16:19.196Z,15
2023-03-06T03:18:22.110Z,17.2
2023-03-06T03:28:40.233Z,85.4
2023-03-06T03:30:43.708Z,17.3
2023-03-06T03:32:46.738Z,17.6
2023-03-06T03:34:49.729Z,12.8
2023-03-06T03:36:52.708Z,18.9
2023-03-06T03:44:07.994Z,28.4
2023-03-06T03:46:11.049Z,19.9
2023-03-06T03:48:13.977Z,24.8
2023-03-06T03:50:16.980Z,26.5
2023-03-06T03:52:23.214Z,18.8
2023-03-06T03:54:26.217Z,18.9
2023-03-06T03:56:29.212Z,22.9
2023-03-06T03:58:32.237Z,24.2
2023-03-06T04:00:35.220Z,20.7
2023-03-06T04:02:38.251Z,35.5
2023-03-06T04:04:41.239Z,19.9
2023-03-06T04:06:47.436Z,24.3
2023-03-06T04:08:50.432Z,23.5
2023-03-06T04:10:53.428Z,28.6
2023-03-06T04:12:56.600Z,33.3
2023-03-06T04:14:59.435Z,39.8
2023-03-06T04:17:02.425Z,33.7
2023-03-06T04:21:11.635Z,20
2023-03-06T04:25:17.656Z,23.3
2023-03-06T04:27:20.658Z,38.8
2023-03-06T04:29:23.636Z,36
2023-03-06T04:31:26.662Z,30.5
2023-03-06T04:33:29.655Z,29.2
2023-03-06T04:35:35.952Z,29.1
2023-03-06T04:37:38.878Z,25.4
2023-03-06T04:39:41.897Z,29.8
2023-03-06T04:42:03.955Z,31.7
2023-03-06T04:44:06.940Z,23.3
2023-03-06T04:46:09.943Z,26.2
2023-03-06T04:48:16.171Z,20.3
2023-03-06T04:50:19.177Z,23.9
2023-03-06T04:52:22.172Z,22.8
2023-03-06T04:54:25.170Z,31.1
2023-03-06T04:56:28.178Z,21.6
2023-03-06T04:58:31.166Z,30.1
2023-03-06T05:00:34.177Z,27.3
2023-03-06T05:02:40.375Z,26.5
2023-03-06T05:04:43.398Z,22.6
2023-03-06T05:06:46.421Z,36.6
2023-03-06T05:08:49.418Z,35.3
2023-03-06T05:12:55.428Z,24.4
2023-03-06T05:21:10.644Z,33.5
2023-03-06T05:23:13.643Z,21.5
2023-03-06T05:25:16.630Z,25
2023-03-06T05:27:19.630Z,23.1
2023-03-06T05:29:22.626Z,24.6
2023-03-06T05:31:28.858Z,34.9
2023-03-06T05:33:31.845Z,28.5
2023-03-06T05:35:34.901Z,33.7
2023-03-06T05:36:37.931Z,29.9
2023-03-06T05:38:40.931Z,21.4
2023-03-06T05:40:43.984Z,38.3
2023-03-06T05:42:46.955Z,25.9
2023-03-06T05:44:53.151Z,27.1
2023-03-06T05:46:56.138Z,26.5
2023-03-06T05:48:59.158Z,35.5
2023-03-06T05:51:02.149Z,31.6
2023-03-06T05:53:05.171Z,21.4
2023-03-06T05:57:11.139Z,35.6
2023-03-06T05:59:17.343Z,34.1
2023-03-06T06:01:20.348Z,27.1
2023-03-06T06:03:23.395Z,36.1
2023-03-06T06:05:26.366Z,23.9
2023-03-06T06:07:29.355Z,36.5
2023-03-06T06:09:32.347Z,28.6
2023-03-06T06:11:35.359Z,30
2023-03-06T06:13:41.578Z,28.2
2023-03-06T06:15:44.597Z,28.5
2023-03-06T06:17:47.580Z,30.3
2023-03-06T06:19:50.567Z,38.7
2023-03-06T06:21:53.548Z,30.9
2023-03-06T06:23:56.572Z,29.7
2023-03-06T06:25:59.568Z,30.6
2023-03-06T06:30:08.842Z,24.5
2023-03-06T06:32:11.870Z,20.2
2023-03-06T06:33:14.894Z,32.5
2023-03-06T06:35:18.698Z,23.4
2023-03-06T06:37:20.895Z,24.5
2023-03-06T06:39:23.959Z,20.4
2023-03-06T06:41:46.607Z,26.1
2023-03-06T06:43:33.121Z,24.6
2023-03-06T06:45:36.162Z,24.9
2023-03-06T06:47:39.163Z,19.7
2023-03-06T06:49:42.165Z,23.4
2023-03-06T06:51:45.160Z,27.9
2023-03-06T06:53:48.154Z,20
2023-03-06T07:00:00.411Z,20.5
2023-03-06T07:02:03.416Z,20.3
2023-03-06T07:04:06.609Z,16.4
2023-03-06T07:06:09.411Z,21.1
2023-03-06T07:08:12.441Z,13.9
2023-03-06T07:10:20.058Z,22
2023-03-06T07:18:30.734Z,20
2023-03-06T07:20:33.764Z,9.6
2023-03-06T07:24:44.600Z,9.1
2023-03-06T07:26:47.553Z,18.1
2023-03-06T07:28:52.862Z,11.6
2023-03-06T07:29:53.701Z,8.8
2023-03-06T07:33:59.745Z,8.7
2023-03-06T07:36:02.808Z,6
2023-03-06T07:38:09.006Z,6.5
2023-03-06T07:40:12.038Z,10.4
2023-03-06T07:42:15.053Z,6.9
2023-03-06T07:44:18.071Z,19.7
2023-03-06T07:46:21.181Z,20
2023-03-06T07:48:24.140Z,7.5
2023-03-06T07:56:39.543Z,9.2
2023-03-06T08:00:45.655Z,7.1
2023-03-06T08:02:48.744Z,1.8
2023-03-06T08:04:51.746Z,3.2
2023-03-06T08:09:01.085Z,4.5
2023-03-06T08:11:04.127Z,10.1
2023-03-06T08:13:07.188Z,2
2023-03-06T08:15:10.229Z,1.9
2023-03-06T08:19:16.369Z,0.4
2023-03-06T08:21:22.652Z,1.2
2023-03-06T08:23:25.724Z,1.6
2023-03-06T08:25:28.796Z,0.8
2023-03-06T08:27:52.572Z,13.8
2023-03-06T08:29:55.630Z,0.1
2023-03-06T08:31:58.786Z,4.9
2023-03-06T08:34:05.016Z,0.1
2023-03-06T08:36:08.121Z,0
2023-03-06T08:38:11.178Z,0.1
2023-03-06T08:40:14.277Z,0
2023-03-06T08:42:17.378Z,0.1
2023-03-06T08:44:20.458Z,0.2
2023-03-06T08:48:29.875Z,3.9
2023-03-06T08:50:32.984Z,0.2
2023-03-06T08:52:36.109Z,0.2
2023-03-06T08:58:45.433Z,0.1
2023-03-06T09:00:48.621Z,0.8
2023-03-06T09:02:54.866Z,0.3
2023-03-06T09:04:57.978Z,0.3
2023-03-06T09:11:07.360Z,0.3
2023-03-06T09:13:10.501Z,0.4
2023-03-06T09:15:13.638Z,0.5
2023-03-06T09:17:20.003Z,0.4
2023-03-06T09:21:26.249Z,3.2
2023-03-06T09:22:29.392Z,0.3
2023-03-06T09:26:45.436Z,2.2
2023-03-06T09:28:38.833Z,1.3
2023-03-06T09:30:45.214Z,0.9
2023-03-06T09:32:48.320Z,2
2023-03-06T09:41:00.842Z,2.5
2023-03-06T09:45:10.300Z,0.3
2023-03-06T09:47:13.414Z,0.5
2023-03-06T09:49:16.534Z,0.1
2023-03-06T09:51:19.674Z,0.8
2023-03-06T09:53:22.821Z,2.2
2023-03-06T09:55:26.019Z,0.4
2023-03-06T09:57:29.092Z,1.1
2023-03-06T09:59:35.262Z,0.9
2023-03-06T10:03:41.361Z,1.1
2023-03-06T10:05:44.407Z,3
2023-03-06T10:07:47.449Z,2
2023-03-06T10:09:50.475Z,4.1
2023-03-06T10:11:53.524Z,0.3
2023-03-06T10:16:02.775Z,1.3
2023-03-06T10:18:05.904Z,0.7
2023-03-06T10:25:18.550Z,2.9
2023-03-06T10:27:24.912Z,0.3
2023-03-06T10:29:28.045Z,0.7
2023-03-06T10:31:31.255Z,12.5
2023-03-06T10:35:37.530Z,1.5
2023-03-06T10:37:40.631Z,0.7
2023-03-06T10:39:43.778Z,2.6
2023-03-06T10:41:50.138Z,0
2023-03-06T10:45:56.489Z,3.8
2023-03-06T10:47:59.565Z,5.1
2023-03-06T10:50:02.737Z,7.5
2023-03-06T10:52:05.886Z,0.6
2023-03-06T10:54:09.027Z,0.1
2023-03-06T10:56:15.299Z,0
2023-03-06T10:58:18.472Z,0.1
2023-03-06T11:00:21.653Z,1.9
2023-03-06T11:04:27.997Z,0
2023-03-06T11:06:31.069Z,8.8
2023-03-06T11:10:40.600Z,0
2023-03-06T11:14:46.895Z,1.1
2023-03-06T11:15:50.105Z,4.1
2023-03-06T11:17:53.240Z,1.8
2023-03-06T11:19:56.384Z,3.3
2023-03-06T11:22:04.245Z,5.9
2023-03-06T11:24:05.874Z,0.3
2023-03-06T11:26:09.032Z,2.4
2023-03-06T11:28:12.203Z,9.6
2023-03-06T11:32:18.526Z,2
2023-03-06T11:34:21.631Z,1.4
2023-03-06T11:36:24.779Z,0.8
2023-03-06T11:42:37.381Z,1
2023-03-06T11:48:46.422Z,3.7
2023-03-06T11:50:49.462Z,0
2023-03-06T11:52:55.631Z,1.2
2023-03-06T11:54:58.691Z,0.5
2023-03-06T11:57:01.753Z,1.5
2023-03-06T11:59:04.815Z,4.8
2023-03-06T12:01:07.866Z,3.3
2023-03-06T12:03:10.926Z,0.1
2023-03-06T12:07:20.175Z,0.1
2023-03-06T12:09:23.291Z,4.9
2023-03-06T12:11:26.339Z,0
2023-03-06T12:13:50.195Z,0
2023-03-06T12:15:53.234Z,0.8
2023-03-06T12:17:56.280Z,0.9
2023-03-06T12:20:02.471Z,0.9
2023-03-06T12:22:05.540Z,1.8
2023-03-06T12:24:08.602Z,0
2023-03-06T12:26:11.648Z,0.5
2023-03-06T12:28:14.706Z,1.1
2023-03-06T12:30:17.756Z,0.5
2023-03-06T12:32:20.897Z,0
2023-03-06T12:34:27.003Z,1.7
2023-03-06T12:36:30.074Z,0.2
2023-03-06T12:40:36.163Z,0.3
2023-03-06T12:42:39.243Z,1.8
2023-03-06T12:44:42.278Z,0.6
2023-03-06T12:46:45.368Z,0.2
2023-03-06T12:48:51.496Z,0
2023-03-06T12:52:57.604Z,0.9
2023-03-06T12:55:00.675Z,0.9
2023-03-06T12:57:03.736Z,0
2023-03-06T12:59:06.809Z,0.6
2023-03-06T13:01:09.863Z,0.7
2023-03-06T13:05:19.080Z,7.9
2023-03-06T13:07:22.154Z,4.6
2023-03-06T13:10:28.314Z,2.8
2023-03-06T13:14:35.832Z,1.1
2023-03-06T13:16:40.592Z,7.3
2023-03-06T13:20:48.193Z,0.6
2023-03-06T13:26:57.401Z,5.8
2023-03-06T13:31:10.577Z,1.9
2023-03-06T13:33:09.647Z,0.8
2023-03-06T13:35:12.719Z,2.6
2023-03-06T13:37:15.779Z,3.4
2023-03-06T13:39:18.831Z,2
2023-03-06T13:41:21.886Z,1.4
2023-03-06T13:43:24.950Z,7.5
2023-03-06T13:45:31.130Z,2.4
2023-03-06T13:47:39.762Z,2
2023-03-06T13:49:37.237Z,4
2023-03-06T13:51:40.321Z,1.9
2023-03-06T13:53:43.486Z,4.2
2023-03-06T13:55:46.620Z,0.5
2023-03-06T13:57:49.796Z,3.5
2023-03-06T14:00:06.735Z,3.1
2023-03-06T14:01:59.337Z,1.2
2023-03-06T14:04:02.495Z,2.3
2023-03-06T14:07:09.208Z,3.4
2023-03-06T14:09:12.000Z,1.1
2023-03-06T14:15:24.686Z,1.1
2023-03-06T14:17:27.842Z,12
2023-03-06T14:19:31.361Z,8.1
2023-03-06T14:21:34.174Z,3.3
2023-03-06T14:23:37.321Z,3.2
2023-03-06T14:25:40.476Z,12
2023-03-06T14:27:46.823Z,3.6
2023-03-06T14:29:49.950Z,8.2
2023-03-06T14:31:53.112Z,14
2023-03-06T14:33:56.270Z,4.3
2023-03-06T14:35:59.436Z,5.6
2023-03-06T14:38:02.562Z,9.1
2023-03-06T14:40:05.703Z,2.7
2023-03-06T14:42:12.128Z,15.9
2023-03-06T14:44:15.198Z,18
2023-03-06T14:46:18.388Z,6.6
2023-03-06T14:48:21.497Z,5.5
2023-03-06T14:52:27.777Z,6.3
2023-03-06T14:56:37.259Z,9.3
2023-03-06T14:58:40.392Z,7.3
2023-03-06T15:01:46.746Z,5.7
2023-03-06T15:03:49.872Z,14.1
2023-03-06T15:05:53.008Z,5.8
2023-03-06T15:07:56.132Z,4.4
2023-03-06T15:10:02.483Z,7.1
2023-03-06T15:12:05.610Z,6.8
2023-03-06T15:14:08.724Z,6.2
2023-03-06T15:16:11.934Z,5.1
2023-03-06T15:24:27.586Z,4.8
2023-03-06T15:26:30.715Z,13.8
2023-03-06T15:30:36.979Z,10.4
2023-03-06T15:36:46.325Z,5.9
2023-03-06T15:45:01.944Z,14
2023-03-06T15:47:09.181Z,17
2023-03-06T15:49:08.142Z,18.2
2023-03-06T15:51:11.290Z,22.5
2023-03-06T15:53:17.536Z,20.4
2023-03-06T15:55:20.632Z,11.8
2023-03-06T15:57:23.725Z,20.5
2023-03-06T16:01:56.669Z,19.5
2023-03-06T16:03:59.834Z,18.4
2023-03-06T16:06:06.061Z,23.4
2023-03-06T16:08:09.132Z,12.3
2023-03-06T16:12:15.323Z,10.5
2023-03-06T16:14:18.396Z,12.2
2023-03-06T16:16:21.471Z,17.6
2023-03-06T16:18:24.594Z,11.7
2023-03-06T16:20:30.877Z,11.8
2023-03-06T16:22:33.934Z,15.1
2023-03-06T16:24:37.012Z,8.4
2023-03-06T16:26:40.107Z,11.7
2023-03-06T16:28:43.178Z,10.8
2023-03-06T16:30:46.394Z,10.7
2023-03-06T16:32:49.366Z,17.5
2023-03-06T16:34:55.573Z,10.6
2023-03-06T16:36:58.654Z,11.5
2023-03-06T16:39:01.743Z,8.2
2023-03-06T16:41:04.799Z,17.9
2023-03-06T16:43:07.878Z,11
2023-03-06T16:45:10.955Z,14
2023-03-06T16:47:14.035Z,11.5
2023-03-06T16:49:20.380Z,20.2
2023-03-06T16:51:23.402Z,14.6
2023-03-06T16:53:26.447Z,15.8
2023-03-06T16:54:29.604Z,12.5
2023-03-06T17:04:48.137Z,22.9
2023-03-06T17:06:51.209Z,23.4
2023-03-06T17:10:57.331Z,16.4
2023-03-06T17:13:00.432Z,15.3
2023-03-06T17:17:09.722Z,23.3
2023-03-06T17:19:12.783Z,21.8
2023-03-06T17:21:15.864Z,29.1
2023-03-06T17:23:18.908Z,28.8
2023-03-06T17:25:21.971Z,22.1
2023-03-06T17:33:37.421Z,22.5
2023-03-06T17:35:40.497Z,28.7
2023-03-06T17:39:46.584Z,38.4
2023-03-06T17:41:49.609Z,26.6
2023-03-06T17:45:58.946Z,29.6
2023-03-06T17:51:08.198Z,35.1
2023-03-06T17:53:11.232Z,38.2
2023-03-06T17:57:17.330Z,36.7
2023-03-06T17:59:23.586Z,35.3
2023-03-06T18:01:26.670Z,40.5
2023-03-06T18:03:29.693Z,52.1
2023-03-06T18:05:32.764Z,43.9
2023-03-06T18:07:35.805Z,31.7
2023-03-06T18:09:38.867Z,32
2023-03-06T18:11:41.946Z,38.2
2023-03-06T18:13:48.195Z,38.4
2023-03-06T18:15:51.208Z,35.4
2023-03-06T18:19:57.276Z,33.2
2023-03-06T18:22:00.278Z,51.3
2023-03-06T18:24:03.327Z,44.8
2023-03-06T18:26:08.815Z,32
2023-03-06T18:28:12.662Z,40.7
2023-03-06T18:32:18.777Z,49.4
2023-03-06T18:34:21.834Z,45.5
2023-03-06T18:36:24.905Z,45.8
2023-03-06T18:38:27.949Z,54.2
2023-03-06T18:40:31.026Z,46.3
2023-03-06T18:42:37.274Z,53.8
2023-03-06T18:44:40.321Z,62.6
2023-03-06T18:47:46.524Z,58.3
2023-03-06T18:49:49.572Z,44.6
2023-03-06T18:51:52.640Z,42.6
2023-03-06T18:53:55.690Z,49.6
2023-03-06T18:56:01.973Z,61.5
2023-03-06T19:00:08.080Z,47.7
2023-03-06T19:02:11.143Z,58.9
2023-03-06T19:04:14.305Z,42.7
2023-03-06T19:06:17.318Z,51.1
2023-03-06T19:10:26.556Z,51.8
2023-03-06T19:12:29.604Z,44.1
2023-03-06T19:18:40.303Z,57.5
2023-03-06T19:22:46.428Z,57.1
2023-03-06T19:24:52.685Z,66.9
2023-03-06T19:26:55.733Z,50.6
2023-03-06T19:28:58.793Z,53
2023-03-06T19:31:01.860Z,60.5
2023-03-06T19:33:04.888Z,51.6
2023-03-06T19:35:07.943Z,47.3
2023-03-06T19:37:10.977Z,45.4
2023-03-06T19:39:17.237Z,45.3
2023-03-06T19:41:20.287Z,46.2
2023-03-06T19:43:23.353Z,53.1
2023-03-06T19:49:57.167Z,56.5
2023-03-06T19:54:06.484Z,53.4
2023-03-06T19:56:09.537Z,40.9
2023-03-06T20:02:18.658Z,58.6
2023-03-06T20:06:27.944Z,40.2
2023-03-06T20:08:30.987Z,36.4
2023-03-06T20:10:34.122Z,51.1
2023-03-06T20:12:37.055Z,39.7
2023-03-06T20:14:40.085Z,43.4
2023-03-06T20:16:43.150Z,44.2
2023-03-06T20:18:46.181Z,46.9
2023-03-06T20:20:52.426Z,44
2023-03-06T20:24:58.479Z,45.6
2023-03-06T20:27:01.526Z,58.7
2023-03-06T20:31:07.659Z,50.5
2023-03-06T20:33:10.680Z,68.3
2023-03-06T20:35:16.893Z,50.5
2023-03-06T20:37:19.941Z,44.4
2023-03-06T20:39:22.946Z,53.4
2023-03-06T20:48:41.431Z,70.5
2023-03-06T20:50:44.466Z,61
2023-03-06T20:52:47.484Z,52.7
2023-03-06T20:58:56.603Z,54.3
2023-03-06T21:01:01.979Z,54.9
2023-03-06T21:05:08.954Z,55.6
2023-03-06T21:07:11.915Z,50.3
2023-03-06T21:17:30.302Z,58.5
2023-03-06T21:19:33.344Z,57.7
2023-03-06T21:21:36.398Z,53.6
2023-03-06T21:23:39.435Z,58.9
2023-03-06T21:25:42.447Z,61.6
2023-03-06T21:29:48.506Z,56.9
2023-03-06T21:31:54.753Z,55.3
2023-03-06T21:33:57.809Z,52.8
2023-03-06T21:37:03.977Z,40.2
2023-03-06T21:39:06.990Z,62.2
2023-03-06T21:41:10.019Z,62.6
2023-03-06T21:43:13.060Z,56.4
2023-03-06T21:47:22.352Z,51.4
2023-03-06T21:51:28.438Z,42.3
2023-03-06T21:53:31.466Z,35.6
2023-03-06T21:55:34.527Z,36.3
2023-03-06T21:57:37.556Z,45.7
2023-03-06T22:01:46.864Z,26.4
2023-03-06T22:03:49.946Z,38.8
2023-03-06T22:05:52.930Z,48
2023-03-06T22:07:56.020Z,42.4
2023-03-06T22:09:59.040Z,43.8
2023-03-06T22:12:02.096Z,40.4
2023-03-06T22:14:08.363Z,54.8
2023-03-06T22:16:11.455Z,34.4
2023-03-06T22:20:17.492Z,47.1
2023-03-06T22:22:20.526Z,44.3
2023-03-06T22:26:26.629Z,46.2
2023-03-06T22:32:39.057Z,37.2
2023-03-06T22:37:48.247Z,63.1
2023-03-06T22:39:51.289Z,33.2
2023-03-06T22:41:57.552Z,42.5
2023-03-06T22:44:00.654Z,25.8
2023-03-06T22:46:03.726Z,39.3
2023-03-06T22:48:11.095Z,39
2023-03-06T22:50:10.630Z,36
2023-03-06T22:52:14.893Z,41.6
2023-03-06T22:54:15.882Z,33.1
2023-03-06T22:56:22.189Z,28.4
2023-03-06T22:58:25.226Z,25.8
2023-03-06T23:00:28.302Z,29.5
2023-03-06T23:02:31.361Z,43.7
2023-03-06T23:04:34.437Z,38.1
2023-03-06T23:06:37.451Z,33.2
2023-03-06T23:08:40.533Z,37.5
2023-03-06T23:10:46.824Z,30
2023-03-06T23:18:59.047Z,25.9
2023-03-06T23:21:02.111Z,31
2023-03-06T23:23:05.176Z,39.5
2023-03-06T23:27:14.501Z,29.7
2023-03-06T23:29:17.582Z,22.5
2023-03-06T23:31:41.301Z,18.1
2023-03-06T23:33:44.378Z,23.1
2023-03-06T23:35:47.491Z,18.2
2023-03-06T23:37:53.720Z,19.9
2023-03-06T23:39:56.771Z,31.3
2023-03-06T23:41:59.845Z,15.1
2023-03-06T23:44:02.936Z,18.7
2023-03-06T23:46:06.055Z,18.2
2023-03-06T23:48:09.070Z,14.3
2023-03-06T23:50:12.133Z,12.5
2023-03-06T23:52:18.415Z,16.6
2023-03-06T23:54:21.510Z,11.4
2023-03-06T23:56:24.557Z,15.6
2023-03-06T23:58:27.625Z,14.6
